createdAt,value
2023-02-08T00:07:35.887Z,100.00
2023-02-08T00:17:39.757Z,100.00
2023-02-08T00:27:41.460Z,100.00
2023-02-08T00:37:43.299Z,100.00
2023-02-08T00:47:47.997Z,100.00
2023-02-08T00:57:50.748Z,100.00
2023-02-08T01:07:53.786Z,100.00
2023-02-08T01:17:56.762Z,100.00
2023-02-08T01:28:00.623Z,100.00
2023-02-08T01:38:02.431Z,100.00
2023-02-08T01:48:19.404Z,100.00
2023-02-08T01:58:25.624Z,100.00
2023-02-08T02:08:28.888Z,100.00
2023-02-08T02:18:32.473Z,100.00
2023-02-08T02:29:18.730Z,100.00
2023-02-08T02:39:46.706Z,96.38
2023-02-08T02:50:02.468Z,94.94
2023-02-08T03:00:19.645Z,93.47
2023-02-08T03:10:48.848Z,92.58
2023-02-08T03:21:11.394Z,92.45
2023-02-08T03:31:13.378Z,91.98
2023-02-08T03:41:21.164Z,92.55
2023-02-08T03:51:27.290Z,94.43
2023-02-08T04:01:45.325Z,94.96
2023-02-08T04:11:50.224Z,95.34
2023-02-08T04:21:51.866Z,93.34
2023-02-08T04:31:53.788Z,91.99
2023-02-08T04:41:55.548Z,92.21
2023-02-08T04:51:58.298Z,91.89
2023-02-08T05:02:01.124Z,91.94
2023-02-08T05:12:02.876Z,92.11
2023-02-08T05:22:04.627Z,96.19
2023-02-08T05:32:07.327Z,99.73
2023-02-08T05:42:09.763Z,97.86
2023-02-08T05:52:14.553Z,97.56
2023-02-08T06:02:18.019Z,100.00
2023-02-08T06:12:24.809Z,100.00
2023-02-08T06:22:26.534Z,100.00
2023-02-08T06:32:28.411Z,100.00
2023-02-08T06:42:32.817Z,100.00
2023-02-08T06:52:36.497Z,100.00
2023-02-08T07:02:38.384Z,95.66
2023-02-08T07:12:40.098Z,96.83
2023-02-08T07:22:42.337Z,97.89
2023-02-08T07:32:44.610Z,89.25
2023-02-08T07:42:46.433Z,84.96
2023-02-08T07:52:48.092Z,80.01
2023-02-08T08:02:51.319Z,80.23
2023-02-08T08:12:53.004Z,72.04
2023-02-08T08:22:54.972Z,67.78
2023-02-08T08:32:57.089Z,63.27
2023-02-08T08:42:59.242Z,58.31
2023-02-08T08:53:01.192Z,55.30
2023-02-08T09:03:03.223Z,53.54
2023-02-08T09:13:05.149Z,52.30
2023-02-08T09:23:07.088Z,50.23
2023-02-08T09:33:08.909Z,49.35
2023-02-08T09:43:21.738Z,47.28
2023-02-08T09:53:44.207Z,45.38
2023-02-08T10:03:47.220Z,44.02
2023-02-08T10:13:58.859Z,42.45
2023-02-08T10:24:22.506Z,40.66
2023-02-08T10:34:41.730Z,38.85
2023-02-08T10:45:22.527Z,37.71
2023-02-08T10:55:28.311Z,37.19
2023-02-08T11:05:38.552Z,33.29
2023-02-08T11:15:45.662Z,36.47
2023-02-08T11:25:48.890Z,32.32
2023-02-08T11:36:03.448Z,33.61
2023-02-08T11:46:06.839Z,31.11
2023-02-08T11:56:19.711Z,28.66
2023-02-08T12:06:21.652Z,27.73
2023-02-08T12:16:48.155Z,37.80
2023-02-08T12:27:01.902Z,34.63
2023-02-08T12:37:31.339Z,25.72
2023-02-08T12:48:04.842Z,24.50
2023-02-08T12:58:38.867Z,26.35
2023-02-08T13:08:51.549Z,32.59
2023-02-08T13:19:18.633Z,23.72
2023-02-08T13:29:22.661Z,22.77
2023-02-08T13:39:46.655Z,24.16
2023-02-08T13:50:02.789Z,22.09
2023-02-08T14:00:37.338Z,20.77
2023-02-08T14:10:44.357Z,25.82
2023-02-08T14:21:01.886Z,28.89
2023-02-08T14:31:07.570Z,33.43
2023-02-08T14:41:09.480Z,33.94
2023-02-08T14:51:12.338Z,29.18
2023-02-08T15:01:17.468Z,29.22
2023-02-08T15:11:33.352Z,37.49
2023-02-08T15:21:37.369Z,41.37
2023-02-08T15:31:41.162Z,42.35
2023-02-08T15:41:43.190Z,44.05
2023-02-08T15:51:48.506Z,43.67
2023-02-08T16:01:52.381Z,45.66
2023-02-08T16:11:58.224Z,46.91
2023-02-08T16:22:21.806Z,46.77
2023-02-08T16:32:30.847Z,47.79
2023-02-08T16:42:42.812Z,48.47
2023-02-08T16:52:50.836Z,48.75
2023-02-08T17:02:53.961Z,50.07
2023-02-08T17:13:07.041Z,50.38
2023-02-08T17:23:19.037Z,50.96
2023-02-08T17:33:20.957Z,51.97
2023-02-08T17:43:27.937Z,53.87
2023-02-08T17:53:30.650Z,55.86
2023-02-08T18:03:38.315Z,56.89
2023-02-08T18:13:41.286Z,58.53
2023-02-08T18:23:44.230Z,59.75
2023-02-08T18:33:48.885Z,61.51
2023-02-08T18:43:55.220Z,63.41
2023-02-08T18:53:58.230Z,65.52
2023-02-08T19:04:05.154Z,67.65
2023-02-08T19:14:11.883Z,69.73
2023-02-08T19:24:16.127Z,74.62
2023-02-08T19:34:21.362Z,75.03
2023-02-08T19:44:23.748Z,76.94
2023-02-08T19:54:27.335Z,78.66
2023-02-08T20:04:34.835Z,80.74
2023-02-08T20:14:37.851Z,81.25
2023-02-08T20:24:40.695Z,86.84
2023-02-08T20:34:54.111Z,83.82
2023-02-08T20:45:01.554Z,85.00
2023-02-08T20:55:04.481Z,86.44
2023-02-08T21:05:07.821Z,89.49
2023-02-08T21:15:10.408Z,95.63
2023-02-08T21:25:16.398Z,100.00
2023-02-08T21:35:21.832Z,99.86
2023-02-08T21:45:23.988Z,100.00
2023-02-08T21:55:25.792Z,100.00
2023-02-08T22:05:48.200Z,100.00
2023-02-08T22:15:50.094Z,100.00
2023-02-08T22:25:51.890Z,100.00
2023-02-08T22:35:55.439Z,100.00
2023-02-08T22:45:58.740Z,100.00
2023-02-08T22:56:03.193Z,100.00
2023-02-08T23:16:47.562Z,100.00
2023-02-08T23:26:49.507Z,100.00
2023-02-08T23:36:51.441Z,100.00
2023-02-08T23:46:55.306Z,100.00
2023-02-08T23:56:57.022Z,100.00
